Time;durP1;ratioP1;P1;durP2;ratioP2;P2;SDS_P1;SDS_P2;PMS_P1;PMS_P2;Temp;Humidity;BMP_temperature;BMP_pressure;BME280_temperature;BME280_humidity;BME280_pressure;Samples;Min_cycle;Max_cycle;Signal;HPM_P1;HPM_P2
2022/03/23 00:01:37;;;;;;;18.58;4.55;;;;;;;10.99;37.60;100012.22;4915714;29;20048;-50
2022/03/23 00:04:03;;;;;;;11.10;5.25;;;;;;;11.18;37.58;100018.88;4915706;29;20034;-50
2022/03/23 00:06:29;;;;;;;10.52;5.05;;;;;;;11.28;36.95;100016.03;4914356;29;20537;-50
2022/03/23 00:08:54;;;;;;;12.07;5.40;;;;;;;11.33;37.44;100014.53;4915714;29;20102;-50
2022/03/23 00:11:20;;;;;;;10.60;5.82;;;;;;;11.40;37.16;100012.84;4915678;29;20483;-49
2022/03/23 00:13:47;;;;;;;12.40;6.47;;;;;;;11.40;37.05;100012.03;4915907;29;20032;-50
2022/03/23 00:16:13;;;;;;;13.98;6.97;;;;;;;11.35;37.52;100004.69;4914250;29;20032;-49
2022/03/23 00:18:39;;;;;;;20.30;14.77;;;;;;;11.31;37.04;100013.09;4915579;29;20029;-50
2022/03/23 00:21:05;;;;;;;16.70;11.85;;;;;;;11.35;37.11;100002.03;4915569;29;20036;-49
2022/03/23 00:23:31;;;;;;;29.33;24.02;;;;;;;11.50;37.84;100011.81;4913990;29;20083;-49
2022/03/23 00:25:59;;;;;;;28.63;18.30;;;;;;;11.66;37.05;100011.72;4915390;29;20032;-49
2022/03/23 00:28:26;;;;;;;23.60;16.90;;;;;;;11.68;36.77;100011.53;4915514;29;20029;-50
2022/03/23 00:30:53;;;;;;;10.85;6.40;;;;;;;11.48;36.23;100016.44;4914127;29;20031;-50
2022/03/23 00:33:21;;;;;;;10.15;6.22;;;;;;;11.49;37.78;100015.44;4914169;29;20494;-49
2022/03/23 00:35:48;;;;;;;14.00;5.18;;;;;;;11.64;37.56;100016.31;4915380;29;20056;-50
2022/03/23 00:38:15;;;;;;;9.85;5.22;;;;;;;11.63;36.70;100016.50;4915308;29;20028;-50
2022/03/23 00:40:43;;;;;;;15.07;5.35;;;;;;;11.47;37.40;100014.78;4915361;29;20111;-50
2022/03/23 00:43:09;;;;;;;11.10;4.88;;;;;;;11.34;36.62;100018.78;4915371;29;20099;-50
2022/03/23 00:45:35;;;;;;;11.07;4.82;;;;;;;11.12;36.89;100022.19;4916652;29;20099;-50
2022/03/23 00:48:02;;;;;;;14.00;4.75;;;;;;;10.89;37.40;100019.50;4917568;29;20119;-49
2022/03/23 00:50:27;;;;;;;15.35;7.07;;;;;;;10.87;47.77;100019.66;4918955;29;20024;-50
2022/03/23 00:52:53;;;;;;;9.85;7.00;;;;;;;11.01;52.52;100028.66;4917678;29;20403;-50
2022/03/23 00:55:19;;;;;;;9.85;4.63;;;;;;;10.80;44.24;100013.44;4918835;29;20111;-49
2022/03/23 00:57:45;;;;;;;9.02;4.65;;;;;;;10.75;43.72;100019.19;4917585;29;20032;-49
2022/03/23 01:00:17;;;;;;;13.07;4.70;;;;;;;10.71;40.48;100023.16;4917434;29;20384;-49
2022/03/23 01:02:45;;;;;;;16.75;6.65;;;;;;;10.80;48.56;100021.31;4918845;29;20028;-50
2022/03/23 01:05:12;;;;;;;9.70;4.10;;;;;;;10.94;41.90;100015.34;4918686;29;20060;-49
2022/03/23 01:07:39;;;;;;;16.77;6.95;;;;;;;10.84;40.65;100017.34;4917295;29;20510;-49
2022/03/23 01:10:07;;;;;;;15.60;5.00;;;;;;;10.83;40.94;100013.09;4917277;29;20028;-50
2022/03/23 01:12:34;;;;;;;17.30;6.53;;;;;;;10.73;39.53;100010.66;4918591;29;20048;-49
2022/03/23 01:15:00;;;;;;;11.13;5.30;;;;;;;10.70;39.00;100016.25;4918516;29;20522;-50
2022/03/23 01:17:25;;;;;;;10.25;5.00;;;;;;;10.70;40.26;100011.00;4918463;29;20032;-49
2022/03/23 01:19:51;;;;;;;12.60;7.03;;;;;;;10.84;40.10;100009.47;4917130;29;20032;-49
2022/03/23 01:22:17;;;;;;;12.52;5.90;;;;;;;10.99;39.25;100009.59;4916882;29;20084;-50
2022/03/23 01:24:44;;;;;;;13.38;5.93;;;;;;;10.95;39.17;100006.50;4918373;29;20103;-49
2022/03/23 01:27:10;;;;;;;11.60;5.90;;;;;;;10.72;39.37;100016.09;4916935;29;20071;-50
2022/03/23 01:29:36;;;;;;;9.82;5.18;;;;;;;10.62;39.54;100010.19;4918528;29;20450;-49
2022/03/23 01:32:02;;;;;;;13.88;5.60;;;;;;;10.66;39.51;100011.50;4916898;29;20550;-49
2022/03/23 01:34:28;;;;;;;14.80;5.30;;;;;;;10.64;39.51;100009.03;4916896;29;20126;-49
2022/03/23 01:36:54;;;;;;;13.80;4.68;;;;;;;10.67;39.21;100011.34;4916839;29;20209;-49
2022/03/23 01:39:20;;;;;;;9.50;5.18;;;;;;;10.46;39.36;100009.25;4916938;29;20052;-49
2022/03/23 01:41:46;;;;;;;13.00;7.35;;;;;;;10.26;40.51;100008.78;4918014;29;20036;-50
2022/03/23 01:44:21;;;;;;;13.35;5.18;;;;;;;10.28;40.23;100016.44;4916781;29;20566;-49
2022/03/23 01:47:00;;;;;;;15.35;7.30;;;;;;;10.26;40.42;100006.16;4916574;29;20107;-49
2022/03/23 01:49:26;;;;;;;31.42;22.02;;;;;;;10.13;40.55;100011.88;4917881;29;20032;-49
2022/03/23 01:51:52;;;;;;;17.52;9.15;;;;;;;9.97;40.76;100001.38;4916548;29;20032;-49
2022/03/23 01:54:18;;;;;;;23.55;11.90;;;;;;;9.95;40.94;100011.22;4916643;29;20036;-50
2022/03/23 01:56:44;;;;;;;18.08;9.38;;;;;;;10.02;40.41;100003.50;4915196;29;20510;-49
2022/03/23 01:59:10;;;;;;;15.32;6.90;;;;;;;9.85;41.21;100006.13;4917758;29;20027;-49
2022/03/23 02:01:38;;;;;;;14.25;6.57;;;;;;;9.75;41.56;100006.28;4916425;29;20111;-49
2022/03/23 02:04:04;;;;;;;8.27;5.75;;;;;;;9.73;41.56;100003.00;4917691;29;20455;-49
2022/03/23 02:06:30;;;;;;;11.07;5.93;;;;;;;9.60;41.95;100000.88;4916443;29;20119;-49
2022/03/23 02:08:55;;;;;;;9.73;5.53;;;;;;;9.52;41.47;100008.72;4916260;29;20503;-49
2022/03/23 02:11:21;;;;;;;12.90;5.43;;;;;;;9.38;42.32;100009.34;4916270;29;20408;-49
2022/03/23 02:13:48;;;;;;;8.75;5.25;;;;;;;9.29;42.57;100000.63;4916136;29;20032;-50
2022/03/23 02:16:14;;;;;;;11.50;5.40;;;;;;;9.22;42.64;99999.63;4917437;29;20028;-49
2022/03/23 02:18:40;;;;;;;18.73;9.50;;;;;;;9.17;42.99;100001.88;4916150;29;20563;-48
2022/03/23 02:21:05;;;;;;;11.25;6.95;;;;;;;9.20;42.65;99999.78;4916008;29;20521;-49
2022/03/23 02:23:31;;;;;;;10.85;6.05;;;;;;;9.14;43.17;100005.66;4915903;29;20063;-49
2022/03/23 02:26:01;;;;;;;13.40;6.60;;;;;;;9.11;43.21;100002.53;4917157;29;20034;-49
2022/03/23 02:28:31;;;;;;;11.88;6.10;;;;;;;8.92;43.39;100006.22;4915933;29;20521;-50
2022/03/23 02:30:57;;;;;;;16.05;7.25;;;;;;;8.79;43.88;100004.03;4915897;29;20028;-49
2022/03/23 02:33:22;;;;;;;13.48;6.70;;;;;;;8.75;44.02;100005.31;4915822;29;20054;-49
2022/03/23 02:35:48;;;;;;;18.20;10.82;;;;;;;8.70;44.13;100007.59;4915767;29;20127;-49
2022/03/23 02:38:16;;;;;;;19.70;7.38;;;;;;;8.60;43.94;100011.13;4917047;29;20032;-49
2022/03/23 02:40:43;;;;;;;13.70;5.88;;;;;;;8.51;44.23;100006.84;4916958;29;20024;-49
2022/03/23 02:43:09;;;;;;;12.82;6.30;;;;;;;8.48;44.52;100006.31;4916932;29;20031;-49
2022/03/23 02:45:35;;;;;;;13.30;5.65;;;;;;;8.37;45.01;100005.56;4915601;29;20024;-49
2022/03/23 02:48:03;;;;;;;18.30;6.93;;;;;;;8.36;45.31;100000.47;4916776;29;20115;-49
2022/03/23 02:50:28;;;;;;;8.85;6.35;;;;;;;8.24;45.01;100006.94;4916803;29;20028;-48
2022/03/23 03:01:52;;;;;;;11.73;6.22;;;;;;;8.02;45.79;100001.19;4916924;29;20100;-48
2022/03/23 03:04:22;;;;;;;14.57;6.57;;;;;;;7.89;45.95;99998.16;4915343;29;20104;-49
2022/03/23 03:06:48;;;;;;;10.35;6.68;;;;;;;7.86;46.28;100004.50;4916368;29;20031;-48
2022/03/23 03:09:15;;;;;;;14.73;6.30;;;;;;;7.78;46.36;100007.03;4914836;29;20411;-49
2022/03/23 03:11:44;;;;;;;19.38;6.82;;;;;;;7.67;46.72;100002.88;4916377;29;20737;-50
2022/03/23 03:14:11;;;;;;;15.02;6.82;;;;;;;7.79;46.88;100006.09;4916370;29;20064;-49
2022/03/23 03:16:38;;;;;;;10.50;6.13;;;;;;;7.82;47.40;100000.53;4915052;29;20410;-49
2022/03/23 03:19:09;;;;;;;15.55;6.43;;;;;;;7.82;47.45;99995.31;4915108;29;20068;-49
2022/03/23 03:21:35;;;;;;;16.13;6.72;;;;;;;7.90;47.36;100003.22;4916054;29;20020;-49
2022/03/23 03:24:01;;;;;;;12.15;6.60;;;;;;;7.89;47.45;100008.63;4916266;29;20390;-49
2022/03/23 03:26:27;;;;;;;15.07;6.72;;;;;;;7.88;47.13;100001.75;4916367;29;20039;-50
2022/03/23 03:28:53;;;;;;;13.07;6.80;;;;;;;7.98;47.41;100007.72;4914849;29;20443;-49
2022/03/23 03:31:18;;;;;;;15.63;7.78;;;;;;;8.01;46.78;100007.41;4914869;29;20024;-49
2022/03/23 03:33:44;;;;;;;10.48;6.75;;;;;;;7.95;47.34;100010.63;4914790;29;20461;-49
2022/03/23 03:36:11;;;;;;;11.75;6.55;;;;;;;7.74;47.84;100014.34;4914774;29;20063;-48
2022/03/23 03:38:40;;;;;;;11.00;6.68;;;;;;;7.55;47.52;100011.91;4914706;29;20502;-49
2022/03/23 03:41:06;;;;;;;11.18;6.82;;;;;;;7.47;48.04;100017.03;4915976;29;20039;-49
2022/03/23 03:43:32;;;;;;;14.82;6.95;;;;;;;7.52;47.58;100017.41;4914667;29;20025;-49
2022/03/23 03:46:00;;;;;;;17.33;7.65;;;;;;;7.50;47.42;100020.16;4915806;29;20062;-49
2022/03/23 03:48:25;;;;;;;12.98;6.82;;;;;;;7.44;47.25;100020.75;4914563;29;20613;-49
2022/03/23 03:50:51;;;;;;;13.70;7.40;;;;;;;7.31;47.64;100017.69;4915834;29;20103;-48
2022/03/23 03:53:17;;;;;;;15.52;7.55;;;;;;;7.29;48.03;100024.84;4915830;29;20028;-48
2022/03/23 03:55:43;;;;;;;14.82;6.80;;;;;;;7.34;47.72;100025.22;4914478;29;20036;-47
2022/03/23 03:58:09;;;;;;;14.10;7.93;;;;;;;7.29;48.28;100032.69;4914465;29;20063;-49
2022/03/23 04:00:35;;;;;;;15.98;7.95;;;;;;;7.28;48.34;100033.63;4914395;29;20068;-48
2022/03/23 04:03:03;;;;;;;17.00;7.32;;;;;;;7.16;48.74;100043.44;4914410;29;20032;-49
2022/03/23 04:05:29;;;;;;;11.88;7.30;;;;;;;7.06;49.17;100034.81;4915683;29;20079;-49
2022/03/23 04:07:55;;;;;;;14.25;9.55;;;;;;;6.96;49.40;100032.25;4915563;29;20490;-47
2022/03/23 04:10:22;;;;;;;15.68;8.02;;;;;;;6.97;49.85;100037.34;4915617;29;20026;-48
2022/03/23 04:12:48;;;;;;;14.40;7.18;;;;;;;7.02;49.62;100030.88;4914314;29;20025;-49
2022/03/23 04:15:19;;;;;;;14.43;7.70;;;;;;;7.16;49.63;100026.00;4915633;29;20423;-49
2022/03/23 04:17:45;;;;;;;13.55;6.72;;;;;;;7.43;48.62;100033.97;4915664;29;20114;-48
2022/03/23 04:20:12;;;;;;;11.02;7.40;;;;;;;7.44;47.91;100039.03;4915025;29;20028;-49
2022/03/23 04:22:38;;;;;;;12.18;7.25;;;;;;;7.30;48.47;100037.72;4919224;29;20072;-48
2022/03/23 04:25:09;;;;;;;12.55;6.68;;;;;;;7.15;49.43;100033.97;4918176;29;20067;-48
2022/03/23 04:27:43;;;;;;;11.93;6.57;;;;;;;7.23;49.44;100038.47;4918113;29;20091;-49
2022/03/23 04:30:10;;;;;;;10.02;6.57;;;;;;;7.31;49.69;100030.75;4919419;29;20030;-49
2022/03/23 04:32:35;;;;;;;15.18;8.48;;;;;;;7.39;49.20;100036.88;4917969;29;20032;-49
2022/03/23 04:35:01;;;;;;;12.43;8.02;;;;;;;7.36;49.52;100034.56;4917961;29;20051;-49
2022/03/23 04:37:27;;;;;;;22.10;7.93;;;;;;;7.40;48.98;100033.31;4917852;29;20043;-50
2022/03/23 04:39:53;;;;;;;16.17;7.20;;;;;;;7.35;49.12;100035.50;4919112;29;20103;-49
2022/03/23 04:42:18;;;;;;;17.13;7.47;;;;;;;7.27;49.33;100037.22;4917869;29;20055;-49
2022/03/23 04:44:44;;;;;;;18.40;8.25;;;;;;;7.11;49.28;100040.44;4919072;29;20016;-49
2022/03/23 04:47:10;;;;;;;14.48;8.18;;;;;;;6.84;49.93;100042.06;4918947;29;20033;-50
2022/03/23 04:49:35;;;;;;;10.32;6.93;;;;;;;6.62;50.59;100040.63;4917688;29;20110;-48
2022/03/23 04:52:01;;;;;;;18.88;7.93;;;;;;;6.50;51.46;100036.50;4917666;29;20032;-48
2022/03/23 04:54:27;;;;;;;15.27;7.28;;;;;;;6.76;51.19;100034.09;4918921;29;20407;-48
2022/03/23 04:56:53;;;;;;;13.85;8.77;;;;;;;7.06;50.44;100040.06;4918940;29;20036;-49
2022/03/23 04:59:19;;;;;;;20.58;8.73;;;;;;;7.38;50.72;100037.84;4917617;29;20028;-48
2022/03/23 05:01:44;;;;;;;17.40;8.15;;;;;;;7.76;49.28;100041.16;4918824;29;20107;-49
2022/03/23 05:04:10;;;;;;;19.27;7.63;;;;;;;7.86;48.92;100035.88;4917504;29;20114;-49
2022/03/23 05:06:36;;;;;;;15.32;7.47;;;;;;;7.89;48.62;100040.00;4918565;29;20032;-48
2022/03/23 05:09:01;;;;;;;12.43;7.15;;;;;;;7.84;48.62;100039.59;4917460;29;20028;-49
2022/03/23 05:11:27;;;;;;;15.63;7.57;;;;;;;8.15;49.00;100047.91;4917335;29;20522;-49
2022/03/23 05:13:53;;;;;;;14.40;7.90;;;;;;;8.40;47.24;100044.47;4917326;29;20594;-49
2022/03/23 05:16:19;;;;;;;13.63;6.53;;;;;;;8.54;47.41;100043.13;4917265;29;20028;-49
2022/03/23 05:18:45;;;;;;;12.43;6.82;;;;;;;8.48;47.30;100046.38;4918462;29;20035;-49
2022/03/23 05:21:11;;;;;;;18.98;7.28;;;;;;;8.29;47.04;100052.59;4917176;29;20024;-49
2022/03/23 05:23:37;;;;;;;15.35;7.68;;;;;;;8.11;47.13;100046.53;4916914;29;20510;-50
2022/03/23 05:26:03;;;;;;;12.55;7.68;;;;;;;7.53;47.74;100045.19;4918289;29;20375;-49
2022/03/23 05:28:29;;;;;;;12.32;7.60;;;;;;;7.23;48.79;100048.91;4917019;29;20080;-49
2022/03/23 05:30:55;;;;;;;13.65;7.40;;;;;;;6.80;50.11;100049.34;4916692;29;20059;-49
2022/03/23 05:33:20;;;;;;;11.98;8.57;;;;;;;6.52;50.54;100048.47;4918232;29;20021;-49
2022/03/23 05:35:46;;;;;;;16.42;7.80;;;;;;;6.30;51.54;100046.16;4918165;29;20112;-49
2022/03/23 05:38:12;;;;;;;13.75;8.27;;;;;;;6.21;51.65;100047.81;4916858;29;20414;-48
2022/03/23 05:40:38;;;;;;;17.77;8.20;;;;;;;6.26;52.54;100053.44;4916839;29;20059;-48
2022/03/23 05:43:03;;;;;;;15.38;8.68;;;;;;;6.29;52.06;100050.53;4916752;29;20051;-50
2022/03/23 05:45:29;;;;;;;15.13;8.80;;;;;;;6.25;52.12;100058.78;4918037;29;20016;-49
2022/03/23 05:47:56;;;;;;;15.90;8.13;;;;;;;6.09;52.57;100064.56;4917895;29;20043;-49
2022/03/23 05:50:22;;;;;;;16.42;7.80;;;;;;;6.25;52.04;100064.00;4917850;29;20032;-47
2022/03/23 05:52:48;;;;;;;14.23;8.73;;;;;;;6.40;51.69;100068.66;4916618;29;20039;-49
2022/03/23 05:55:13;;;;;;;18.27;8.20;;;;;;;6.65;51.27;100063.81;4916534;29;20401;-49
2022/03/23 05:57:39;;;;;;;15.35;7.97;;;;;;;6.82;51.17;100067.47;4916534;29;20040;-48
2022/03/23 06:00:07;;;;;;;16.00;8.68;;;;;;;7.00;50.17;100063.16;4917774;29;20032;-48
2022/03/23 06:02:33;;;;;;;12.20;7.88;;;;;;;7.24;50.06;100066.22;4916372;29;20094;-48
2022/03/23 06:04:59;;;;;;;14.15;8.55;;;;;;;7.58;48.84;100071.66;4916362;29;20059;-49
2022/03/23 06:07:25;;;;;;;15.45;8.25;;;;;;;7.79;48.58;100072.25;4916270;29;20087;-48
2022/03/23 06:09:50;;;;;;;18.23;9.05;;;;;;;7.58;48.41;100072.50;4916301;29;20566;-49
2022/03/23 06:12:17;;;;;;;21.38;10.10;;;;;;;7.41;49.31;100075.91;4917460;29;20038;-49
2022/03/23 06:14:43;;;;;;;13.18;8.30;;;;;;;7.25;49.57;100078.31;4917509;29;20024;-49
2022/03/23 06:17:10;;;;;;;19.58;8.50;;;;;;;7.12;49.60;100074.25;4916118;29;20071;-50
2022/03/23 06:19:36;;;;;;;13.43;9.13;;;;;;;7.12;49.98;100076.88;4917376;29;20071;-48
2022/03/23 06:22:02;;;;;;;18.27;9.38;;;;;;;7.18;50.19;100081.50;4915865;29;20052;-48
2022/03/23 06:24:28;;;;;;;12.20;7.80;;;;;;;7.57;49.21;100073.47;4917344;29;20111;-49
2022/03/23 06:26:54;;;;;;;20.67;9.60;;;;;;;8.20;48.63;100071.78;4917161;29;20104;-48
2022/03/23 06:29:20;;;;;;;16.60;9.10;;;;;;;8.60;47.32;100070.50;4917158;29;20036;-49
2022/03/23 06:31:45;;;;;;;15.88;9.18;;;;;;;8.99;45.99;100068.28;4915890;29;20103;-49
2022/03/23 06:34:11;;;;;;;17.40;7.63;;;;;;;9.55;44.88;100063.41;4915896;29;20035;-49
2022/03/23 06:36:37;;;;;;;13.43;8.02;;;;;;;9.87;43.65;100058.41;4917067;29;20032;-50
2022/03/23 06:39:04;;;;;;;13.10;7.60;;;;;;;9.91;43.24;100062.34;4917047;29;20115;-49
2022/03/23 06:41:30;;;;;;;15.60;7.90;;;;;;;10.21;43.64;100058.28;4915650;29;20030;-49
2022/03/23 06:43:56;;;;;;;10.23;7.07;;;;;;;10.70;42.68;100066.13;4914945;29;20063;-50
2022/03/23 06:46:22;;;;;;;20.70;9.25;;;;;;;11.19;41.33;100062.56;4916850;29;20031;-49
2022/03/23 06:48:48;;;;;;;15.50;8.18;;;;;;;11.08;41.16;100062.94;4915590;29;20021;-49
2022/03/23 06:51:15;;;;;;;20.63;9.18;;;;;;;11.11;40.95;100068.66;4915520;29;20519;-50
2022/03/23 06:53:41;;;;;;;13.65;8.38;;;;;;;11.60;40.12;100060.56;4916825;29;20402;-49
2022/03/23 06:56:08;;;;;;;13.77;8.50;;;;;;;11.92;39.80;100063.19;4916743;29;20114;-50
2022/03/23 06:58:34;;;;;;;17.88;8.13;;;;;;;12.71;38.75;100068.13;4915376;29;20031;-49
2022/03/23 07:01:00;;;;;;;13.35;7.20;;;;;;;13.45;36.96;100068.13;4916650;29;20032;-50
2022/03/23 07:03:27;;;;;;;15.55;8.13;;;;;;;13.63;35.81;100064.28;4916607;29;20025;-50
2022/03/23 07:05:53;;;;;;;24.13;8.60;;;;;;;13.68;35.70;100067.16;4916572;29;20028;-50
2022/03/23 07:11:04;;;;;;;11.23;7.32;;;;;;;14.08;35.02;100065.75;4916857;29;20410;-50
2022/03/23 07:13:31;;;;;;;17.08;7.82;;;;;;;14.18;35.02;100062.78;4916425;29;20177;-50
2022/03/23 07:15:57;;;;;;;17.17;9.52;;;;;;;14.85;34.35;100073.88;4916379;29;20111;-50
2022/03/23 07:18:22;;;;;;;17.33;8.02;;;;;;;15.27;33.65;100069.44;4915078;29;20387;-50
2022/03/23 07:20:48;;;;;;;21.85;8.77;;;;;;;15.94;32.96;100070.50;4914952;29;20028;-50
2022/03/23 07:23:14;;;;;;;21.25;7.65;;;;;;;16.35;32.08;100072.16;4914747;29;20052;-50
2022/03/23 07:25:40;;;;;;;16.48;7.50;;;;;;;16.73;31.68;100071.53;4915002;29;20038;-50
2022/03/23 07:28:06;;;;;;;16.52;8.10;;;;;;;17.29;30.88;100071.00;4916109;29;20036;-50
2022/03/23 07:30:35;;;;;;;19.90;8.55;;;;;;;17.91;32.08;100073.19;4916105;29;20035;-50
2022/03/23 07:33:03;;;;;;;20.80;7.53;;;;;;;17.91;29.73;100068.69;4916125;29;20024;-50
2022/03/23 07:35:29;;;;;;;23.23;7.57;;;;;;;18.46;29.39;100070.72;4916037;29;20430;-50
2022/03/23 07:37:55;;;;;;;16.85;7.20;;;;;;;19.08;28.21;100075.28;4916038;29;20036;-50
2022/03/23 07:40:21;;;;;;;20.40;7.38;;;;;;;19.50;27.53;100072.72;4915943;29;20047;-50
2022/03/23 07:42:47;;;;;;;24.35;9.45;;;;;;;19.98;27.29;100076.38;4915934;29;20161;-50
2022/03/23 07:45:14;;;;;;;21.65;8.85;;;;;;;20.09;27.10;100078.28;4915929;29;20099;-51
2022/03/23 07:47:40;;;;;;;15.57;8.20;;;;;;;20.80;26.96;100068.47;4915833;29;20442;-51
2022/03/23 07:50:07;;;;;;;16.60;8.02;;;;;;;21.19;25.77;100079.47;4915865;29;20578;-51
2022/03/23 07:52:34;;;;;;;22.15;7.95;;;;;;;21.40;24.91;100079.88;4915854;29;20490;-51
2022/03/23 07:55:03;;;;;;;21.75;8.23;;;;;;;21.72;24.94;100069.53;4915829;29;20024;-50
2022/03/23 07:57:29;;;;;;;19.20;8.73;;;;;;;21.71;24.54;100073.25;4915804;29;20032;-52
2022/03/23 07:59:55;;;;;;;18.90;9.68;;;;;;;21.88;24.93;100071.44;4915738;29;20024;-51
2022/03/23 08:02:26;;;;;;;21.02;7.75;;;;;;;22.16;24.49;100072.44;4914417;29;20036;-50
2022/03/23 08:04:52;;;;;;;22.55;7.60;;;;;;;22.74;23.49;100071.22;4915760;29;20036;-51
2022/03/23 08:07:18;;;;;;;17.42;7.28;;;;;;;23.81;22.69;100067.41;4915546;29;20039;-51
2022/03/23 08:09:44;;;;;;;18.30;7.57;;;;;;;24.69;21.97;100061.69;4915628;29;20024;-51
2022/03/23 08:12:09;;;;;;;16.65;6.72;;;;;;;25.05;21.07;100064.50;4915567;29;20024;-51
2022/03/23 08:14:35;;;;;;;15.57;7.25;;;;;;;25.43;20.88;100066.00;4915617;29;20032;-51
2022/03/23 08:17:01;;;;;;;27.33;8.88;;;;;;;25.88;20.63;100053.75;4914244;29;20032;-50
2022/03/23 08:19:27;;;;;;;18.77;7.25;;;;;;;25.70;20.92;100060.44;4915584;29;20032;-50
2022/03/23 08:21:53;;;;;;;27.00;7.93;;;;;;;25.94;20.67;100059.97;4915212;29;20443;-50
2022/03/23 08:24:19;;;;;;;20.50;7.93;;;;;;;26.07;20.18;100048.66;4914729;29;20060;-50
2022/03/23 08:26:46;;;;;;;20.67;7.75;;;;;;;25.68;21.02;100059.09;4913322;29;20028;-50
2022/03/23 08:29:12;;;;;;;19.92;7.97;;;;;;;25.03;21.18;100066.66;4913342;29;20463;-50
2022/03/23 08:31:38;;;;;;;18.10;7.28;;;;;;;24.96;21.40;100064.22;4913369;29;20028;-50
2022/03/23 08:34:07;;;;;;;9.43;6.30;;;;;;;25.33;21.07;100059.81;4914620;29;20028;-51
2022/03/23 08:36:33;;;;;;;19.73;7.65;;;;;;;25.71;20.93;100053.97;4913321;29;20462;-51
2022/03/23 08:38:59;;;;;;;21.77;7.32;;;;;;;25.94;20.74;100059.97;4913273;29;20067;-50
2022/03/23 08:41:25;;;;;;;20.73;7.60;;;;;;;26.26;19.79;100061.56;4913363;29;20027;-50
2022/03/23 08:43:51;;;;;;;16.95;6.40;;;;;;;25.85;20.25;100053.47;4913210;29;20028;-50
2022/03/23 08:46:17;;;;;;;12.93;6.28;;;;;;;26.18;19.77;100052.16;4914380;29;20072;-50
2022/03/23 08:48:43;;;;;;;14.00;6.10;;;;;;;26.63;19.80;100047.78;4914485;29;20099;-50
2022/03/23 08:51:09;;;;;;;36.40;7.28;;;;;;;27.14;19.19;100049.50;4913133;29;20124;-51
2022/03/23 08:53:35;;;;;;;15.43;7.35;;;;;;;27.46;19.03;100046.38;4914484;29;20103;-51
2022/03/23 08:56:00;;;;;;;14.48;6.53;;;;;;;27.32;18.78;100044.59;4914394;29;20486;-51
2022/03/23 08:58:26;;;;;;;17.27;6.68;;;;;;;27.62;19.11;100048.97;4913065;29;20068;-50
2022/03/23 09:00:52;;;;;;;16.00;6.57;;;;;;;27.81;17.99;100043.72;4912981;29;20040;-51
2022/03/23 09:03:18;;;;;;;18.23;7.22;;;;;;;26.60;19.11;100055.59;4913008;29;20035;-51
2022/03/23 09:05:44;;;;;;;18.05;6.55;;;;;;;26.31;19.51;100043.50;4914342;29;20036;-51
2022/03/23 09:08:10;;;;;;;15.77;6.47;;;;;;;26.29;20.43;100051.06;4917406;29;20375;-52
2022/03/23 09:10:36;;;;;;;18.77;6.78;;;;;;;26.27;19.40;100036.25;4916187;29;20036;-51
2022/03/23 09:13:02;;;;;;;15.13;9.15;;;;;;;26.46;19.43;100033.78;4917398;29;20088;-51
2022/03/23 09:15:28;;;;;;;13.32;6.38;;;;;;;26.42;19.24;100043.50;4917397;29;20091;-51
2022/03/23 09:18:01;;;;;;;14.52;9.35;;;;;;;26.78;19.08;100030.78;4917396;29;20498;-52
2022/03/23 09:20:30;;;;;;;12.95;6.40;;;;;;;27.39;18.11;100037.00;4917346;29;20111;-52
2022/03/23 09:22:58;;;;;;;15.23;7.72;;;;;;;27.43;17.96;100030.78;4861631;29;1612335;-51
2022/03/23 09:25:25;;;;;;;18.48;7.05;;;;;;;27.21;18.49;100023.06;4917148;29;20155;-50
2022/03/23 09:27:52;;;;;;;17.10;6.43;;;;;;;26.85;18.23;100023.22;4918298;29;20033;-50
2022/03/23 09:30:18;;;;;;;11.48;6.57;;;;;;;26.24;18.49;100032.22;4918267;29;20538;-51
2022/03/23 09:32:46;;;;;;;25.35;6.93;;;;;;;26.08;18.90;100026.06;4918310;29;20059;-51
2022/03/23 09:35:13;;;;;;;37.25;7.88;;;;;;;26.89;18.41;100029.66;4918164;29;20028;-51
2022/03/23 09:37:50;;;;;;;25.27;7.15;;;;;;;27.72;17.86;100021.13;4918241;29;20032;-51
2022/03/23 09:40:28;;;;;;;15.73;7.05;;;;;;;27.25;17.85;100023.34;4918460;29;20114;-51
2022/03/23 09:43:00;;;;;;;10.13;6.18;;;;;;;26.82;17.91;100029.16;4918185;29;20040;-51
2022/03/23 09:45:46;;;;;;;19.42;6.80;;;;;;;26.82;18.16;100022.94;4918106;29;20058;-51
2022/03/23 09:48:20;;;;;;;15.48;6.50;;;;;;;27.36;17.81;100032.97;4917998;29;20038;-51
2022/03/23 09:50:50;;;;;;;16.02;6.30;;;;;;;27.83;17.54;100023.47;4918098;29;20074;-52
2022/03/23 09:53:16;;;;;;;15.23;7.10;;;;;;;28.51;16.33;100023.69;4917942;29;20475;-51
2022/03/23 09:55:43;;;;;;;16.85;7.40;;;;;;;28.53;16.83;100021.53;4916673;29;20492;-51
2022/03/23 09:58:10;;;;;;;15.75;6.55;;;;;;;28.79;16.21;100022.81;4916563;29;20530;-51
2022/03/23 10:00:41;;;;;;;18.48;6.45;;;;;;;28.91;16.17;100018.91;4917722;29;20031;-51
2022/03/23 10:03:09;;;;;;;12.45;6.78;;;;;;;29.97;15.13;100018.47;4916472;29;20046;-51
2022/03/23 10:06:01;;;;;;;14.82;6.78;;;;;;;30.51;14.80;100013.47;4916388;29;20024;-51
2022/03/23 10:08:48;;;;;;;14.07;7.20;;;;;;;30.73;14.46;100001.94;4914499;29;20050;-51
2022/03/23 10:11:58;;;;;;;14.32;6.30;;;;;;;31.50;14.40;100002.19;4917627;29;20059;-51
2022/03/23 10:14:30;;;;;;;11.77;7.15;;;;;;;31.75;13.82;99998.84;4912140;29;20047;-52
2022/03/23 10:17:33;;;;;;;20.10;7.65;;;;;;;31.63;13.85;99999.44;4916038;29;20118;-52
2022/03/23 10:20:00;;;;;;;12.93;7.07;;;;;;;31.27;13.97;99988.59;4917546;29;20459;-52
2022/03/23 10:22:28;;;;;;;19.10;10.30;;;;;;;31.51;14.45;99985.63;4917188;29;20048;-52
2022/03/23 10:24:55;;;;;;;12.55;6.95;;;;;;;30.88;13.94;99984.56;4917615;29;20449;-52
2022/03/23 10:27:23;;;;;;;11.70;6.88;;;;;;;30.83;13.46;99984.66;4917222;29;20028;-52
2022/03/23 10:29:54;;;;;;;13.73;7.40;;;;;;;29.90;14.13;99982.88;4917257;29;20043;-49
2022/03/23 10:32:21;;;;;;;18.23;7.25;;;;;;;30.53;14.03;99980.66;4917213;29;20455;-50
2022/03/23 10:34:52;;;;;;;23.98;9.20;;;;;;;31.44;13.64;99977.06;4915878;29;20475;-49
2022/03/23 10:37:29;;;;;;;11.40;7.10;;;;;;;31.73;12.96;99979.34;4917079;29;20131;-50
2022/03/23 10:39:57;;;;;;;12.93;7.90;;;;;;;31.25;12.91;99978.03;4915825;29;20024;-49
2022/03/23 10:42:33;;;;;;;26.27;11.43;;;;;;;31.47;13.61;99971.03;4917028;29;20024;-49
2022/03/23 10:45:09;;;;;;;23.38;8.13;;;;;;;31.93;12.93;99964.44;4915791;29;20032;-50
2022/03/23 10:47:37;;;;;;;14.20;7.57;;;;;;;32.49;12.33;99966.78;4915950;29;20083;-49
2022/03/23 10:50:07;;;;;;;27.10;10.02;;;;;;;33.00;12.65;99963.38;4916879;29;20127;-49
2022/03/23 10:52:33;;;;;;;23.85;11.55;;;;;;;32.97;12.64;99961.28;4916895;29;20088;-49
2022/03/23 10:55:01;;;;;;;14.63;7.60;;;;;;;31.73;12.15;99963.06;4916796;29;20028;-51
2022/03/23 10:57:51;;;;;;;19.45;8.27;;;;;;;31.50;12.87;99961.50;4916756;29;20036;-52
2022/03/23 11:00:27;;;;;;;19.00;8.93;;;;;;;31.35;12.65;99955.31;4916752;29;20068;-51
2022/03/23 11:02:53;;;;;;;27.70;8.48;;;;;;;31.57;12.47;99964.56;4916711;29;20055;-52
2022/03/23 11:05:38;;;;;;;17.33;7.78;;;;;;;31.92;12.17;99954.72;4916601;29;20059;-52
2022/03/23 11:08:21;;;;;;;21.63;12.95;;;;;;;31.83;12.71;99959.28;4916484;29;20029;-51
2022/03/23 11:16:30;;;;;;;14.93;7.90;;;;;;;32.00;12.05;99945.84;4916734;29;20517;-52
2022/03/23 11:19:10;;;;;;;21.95;10.02;;;;;;;31.90;12.02;99932.50;4916389;29;20043;-52
2022/03/23 11:21:59;;;;;;;12.85;8.52;;;;;;;32.19;11.75;99942.84;4916194;29;20036;-51
2022/03/23 11:24:31;;;;;;;15.00;9.38;;;;;;;32.23;11.93;99943.03;4916388;29;20036;-52
2022/03/23 11:26:57;;;;;;;15.43;8.60;;;;;;;32.72;11.48;99938.41;4916173;29;20029;-52
2022/03/23 11:29:23;;;;;;;19.40;8.85;;;;;;;32.90;11.75;99938.41;4915909;29;20038;-52
2022/03/23 11:31:53;;;;;;;17.75;7.53;;;;;;;32.99;11.20;99931.06;4916124;29;20029;-51
2022/03/23 11:34:22;;;;;;;13.88;7.22;;;;;;;33.27;11.09;99931.56;4914814;29;20043;-52
2022/03/23 11:36:52;;;;;;;18.77;8.68;;;;;;;32.75;11.49;99932.31;4916038;29;20056;-51
2022/03/23 11:39:21;;;;;;;12.05;8.27;;;;;;;32.59;11.46;99923.81;4916006;29;20037;-52
2022/03/23 11:41:50;;;;;;;12.20;7.75;;;;;;;32.60;11.02;99928.16;4915960;29;20513;-52